Data for 02/10/2013

Time Sea-Level Adjusted Pressure Absolute Pressure Temperature Relative Humidity Dew Point   
(mb) (inHg) (mb) (inHg) (C) (F) (%) (C) (F)
00:05 1014 29.94 843 24.89 -3.7 25.3 94 -4.6 23.7
00:10 1014 29.94 843 24.89 -3.7 25.3 93 -4.7 23.6
00:15 1014 29.94 843 24.89 -3.7 25.3 93 -4.7 23.5
00:20 1014 29.94 843 24.89 -3.8 25.2 93 -4.8 23.4
00:25 1014 29.94 843 24.89 -3.8 25.2 93 -4.8 23.4
00:30 1014 29.94 843 24.89 -3.8 25.2 92 -4.9 23.2
00:35 1014 29.94 843 24.89 -3.8 25.2 92 -4.9 23.1
00:40 1014 29.94 843 24.89 -3.7 25.3 91 -5 23
00:45 1014 29.94 843 24.89 -3.7 25.3 91 -5 23
00:50 1014 29.94 843 24.89 -3.8 25.2 91 -5.1 22.9
00:55 1014 29.94 843 24.89 -3.8 25.2 90 -5.2 22.7
01:00 1014 29.94 843 24.89 -3.8 25.2 89 -5.3 22.5
01:05 1014 29.94 843 24.89 -3.8 25.2 89 -5.3 22.5
01:10 1014 29.94 844 24.92 -3.8 25.2 89 -5.3 22.5
01:15 1014 29.94 844 24.92 -3.8 25.2 89 -5.3 22.5
01:20 1014 29.94 844 24.92 -3.8 25.1 90 -5.3 22.5
01:25 1015 29.97 844 24.92 -3.9 25 90 -5.3 22.4
01:30 1015 29.97 844 24.92 -3.8 25.1 89 -5.4 22.3
01:35 1015 29.97 844 24.92 -3.8 25.1 89 -5.5 22.2
01:40 1015 29.97 844 24.92 -3.8 25.1 88 -5.5 22.1
01:45 1015 29.97 844 24.92 -3.8 25.1 88 -5.5 22
01:50 1015 29.97 844 24.92 -3.8 25.2 88 -5.5 22.1
01:55 1015 29.97 844 24.92 -3.8 25.2 88 -5.5 22.1
02:00 1015 29.97 844 24.92 -3.8 25.1 89 -5.5 22.2
02:05 1015 29.97 844 24.92 -3.9 25.1 89 -5.5 22.2
02:10 1015 29.97 844 24.92 -3.8 25.1 89 -5.5 22.2
02:15 1015 29.97 844 24.92 -3.9 25.1 89 -5.4 22.2
02:20 1015 29.97 844 24.92 -3.9 25 89 -5.4 22.3
02:25 1015 29.97 844 24.92 -3.9 25 90 -5.3 22.4
02:30 1015 29.97 844 24.92 -3.9 24.9 90 -5.3 22.4
02:35 1015 29.97 844 24.92 -3.9 25 90 -5.3 22.5
02:40 1015 29.97 844 24.92 -3.9 24.9 90 -5.3 22.5
02:45 1015 29.97 844 24.92 -3.9 24.9 90 -5.3 22.5
02:50 1015 29.97 844 24.92 -3.9 24.9 90 -5.3 22.5
02:55 1015 29.97 844 24.92 -3.9 25 90 -5.4 22.4
03:00 1015 29.97 844 24.92 -3.9 25 88 -5.5 22.1
03:05 1015 29.97 844 24.92 -3.8 25.1 87 -5.7 21.7
03:10 1015 29.97 844 24.92 -3.9 25.1 86 -5.9 21.4
03:15 1015 29.97 844 24.92 -3.9 25.1 84 -6.1 21
03:20 1015 29.97 844 24.92 -3.8 25.1 83 -6.4 20.5
03:25 1015 29.97 844 24.92 -3.8 25.1 82 -6.4 20.4
03:30 1015 29.97 844 24.92 -3.9 25 80 -6.8 19.8
03:35 1015 29.97 844 24.92 -3.9 25 80 -6.9 19.6
03:40 1015 29.97 844 24.92 -4 24.9 78 -7.2 19
03:45 1015 29.97 845 24.95 -3.9 24.9 78 -7.3 18.9
03:50 1015 29.97 845 24.95 -4 24.8 78 -7.3 18.9
03:55 1015 29.97 845 24.95 -4.1 24.7 78 -7.4 18.7
04:00 1016 30 845 24.95 -4.1 24.6 78 -7.4 18.7
04:05 1016 30 845 24.95 -4.2 24.4 77 -7.7 18.1
04:10 1016 30 845 24.95 -4.2 24.5 77 -7.7 18.1
04:15 1016 30 845 24.95 -4.3 24.3 78 -7.5 18.4
04:20 1016 30 845 24.95 -4.4 24.1 79 -7.6 18.3
04:25 1016 30 845 24.95 -4.5 23.8 79 -7.6 18.3
04:30 1016 30 845 24.95 -4.7 23.6 80 -7.7 18.2
04:35 1016 30 845 24.95 -4.8 23.4 80 -7.7 18.1
04:40 1016 30 845 24.95 -4.9 23.2 81 -7.6 18.3
04:45 1016 30 845 24.95 -5.1 22.9 83 -7.5 18.4
04:50 1016 30 845 24.95 -5.2 22.7 84 -7.5 18.5
04:55 1016 30 845 24.95 -5.2 22.6 84 -7.5 18.5
05:00 1016 30 845 24.95 -5.2 22.6 84 -7.5 18.6
05:05 1016 30 845 24.95 -5.3 22.4 85 -7.4 18.6
05:10 1016 30 845 24.95 -5.5 22.2 86 -7.4 18.7
05:15 1016 30 845 24.95 -5.5 22.2 87 -7.3 18.8
05:20 1016 30 845 24.95 -5.5 22.1 88 -7.2 19
05:25 1016 30 845 24.95 -5.5 22.1 88 -7.2 19
05:30 1016 30 845 24.95 -5.5 22.2 88 -7.2 19
05:35 1016 30 845 24.95 -5.4 22.3 87 -7.2 19.1
05:40 1016 30 846 24.98 -5.3 22.5 87 -7.1 19.2
05:45 1016 30 846 24.98 -5.2 22.7 86 -7.2 19.1
05:50 1016 30 846 24.98 -5.1 22.8 85 -7.2 19.1
05:55 1016 30 846 24.98 -5.1 22.8 84 -7.3 18.8
06:00 1016 30 846 24.98 -5.1 22.9 85 -7.3 18.9
06:05 1017 30.03 846 24.98 -5.1 22.8 84 -7.4 18.8
06:10 1017 30.03 846 24.98 -5.2 22.7 84 -7.4 18.7
06:15 1017 30.03 846 24.98 -5.3 22.5 85 -7.4 18.7
06:20 1017 30.03 846 24.98 -5.5 22.2 85 -7.5 18.5
06:25 1017 30.03 846 24.98 -5.5 22.1 86 -7.5 18.5
06:30 1017 30.03 846 24.98 -5.5 22.1 85 -7.7 18.2
06:35 1017 30.03 846 24.98 -5.5 22.1 83 -7.9 17.7
06:40 1017 30.03 846 24.98 -5.4 22.2 82 -8.1 17.4
06:45 1017 30.03 846 24.98 -5.4 22.2 81 -8.3 17.1
06:50 1017 30.03 846 24.98 -5.4 22.2 79 -8.5 16.8
06:55 1017 30.03 846 24.98 -5.4 22.3 79 -8.5 16.7
07:00 1017 30.03 846 24.98 -5.4 22.3 78 -8.6 16.5
07:05 1017 30.03 846 24.98 -5.4 22.3 78 -8.7 16.3
07:10 1017 30.03 846 24.98 -5.4 22.3 77 -8.8 16.2
07:15 1017 30.03 846 24.98 -5.4 22.3 78 -8.7 16.4
07:20 1017 30.03 847 25.01 -5.4 22.2 79 -8.6 16.6
07:25 1017 30.03 847 25.01 -5.5 22.1 79 -8.6 16.5
07:30 1017 30.03 847 25.01 -5.6 21.9 80 -8.6 16.5
07:35 1017 30.03 847 25.01 -5.7 21.7 80 -8.6 16.4
07:40 1017 30.03 847 25.01 -5.8 21.5 80 -8.7 16.3
07:45 1017 30.03 847 25.01 -5.9 21.4 80 -8.8 16.1
07:50 1017 30.03 847 25.01 -6 21.2 80 -9 15.9
07:55 1017 30.03 847 25.01 -6 21.2 78 -9.2 15.5
08:00 1018 30.06 847 25.01 -6 21.3 77 -9.3 15.2
08:05 1018 30.06 847 25.01 -5.9 21.4 77 -9.3 15.3
08:10 1018 30.06 847 25.01 -5.9 21.4 77 -9.3 15.2
08:15 1018 30.06 847 25.01 -5.9 21.5 77 -9.3 15.3
08:20 1018 30.06 847 25.01 -5.8 21.5 76 -9.3 15.2
08:25 1018 30.06 847 25.01 -5.8 21.6 75 -9.5 15
08:30 1018 30.06 847 25.01 -5.8 21.6 75 -9.5 14.8
08:35 1018 30.06 847 25.01 -5.8 21.5 75 -9.6 14.7
08:40 1018 30.06 847 25.01 -5.9 21.5 75 -9.6 14.7
08:45 1018 30.06 847 25.01 -5.8 21.5 75 -9.6 14.7
08:50 1018 30.06 847 25.01 -5.9 21.4 76 -9.4 15.1
08:55 1018 30.06 847 25.01 -6 21.1 79 -9.2 15.5
09:00 1018 30.06 847 25.01 -6.1 21.1 79 -9.1 15.6
09:05 1018 30.06 847 25.01 -6.1 21 80 -9 15.7
09:10 1018 30.06 847 25.01 -6 21.2 79 -9 15.8
09:15 1018 30.06 848 25.04 -5.9 21.3 78 -9.1 15.6
09:20 1018 30.06 848 25.04 -5.8 21.5 78 -9.1 15.7
09:25 1019 30.09 848 25.04 -5.8 21.6 79 -9 15.9
09:30 1019 30.09 848 25.04 -5.9 21.4 78 -9.1 15.7
09:35 1019 30.09 848 25.04 -5.9 21.4 77 -9.3 15.3
09:40 1019 30.09 848 25.04 -5.9 21.4 76 -9.4 15
09:45 1019 30.09 848 25.04 -5.7 21.7 75 -9.5 14.9
09:50 1019 30.09 848 25.04 -5.6 21.9 73 -9.7 14.5
09:55 1019 30.09 848 25.04 -5.5 22.2 72 -9.7 14.5
10:00 1019 30.09 848 25.04 -5.2 22.6 71 -9.8 14.4
10:05 1019 30.09 848 25.04 -5 22.9 70 -9.7 14.6
10:10 1019 30.09 848 25.04 -4.8 23.3 69 -9.7 14.6
10:15 1019 30.09 848 25.04 -4.6 23.8 68 -9.6 14.7
10:20 1019 30.09 848 25.04 -4.6 23.6 69 -9.5 14.9
10:25 1019 30.09 848 25.04 -4.7 23.5 70 -9.4 15.1
10:30 1019 30.09 848 25.04 -4.7 23.5 70 -9.4 15.1
10:35 1019 30.09 848 25.04 -4.9 23.2 70 -9.5 15
10:40 1019 30.09 848 25.04 -4.9 23.2 71 -9.4 15
10:45 1019 30.09 848 25.04 -4.8 23.3 70 -9.6 14.8
10:50 1019 30.09 848 25.04 -5 23 71 -9.6 14.8
10:55 1019 30.09 848 25.04 -5 22.9 70 -9.7 14.5
11:00 1019 30.09 848 25.04 -5 22.9 71 -9.5 15
11:05 1019 30.09 848 25.04 -4.6 23.7 69 -9.5 14.9
11:10 1019 30.09 848 25.04 -4.2 24.5 66 -9.5 14.9
11:15 1019 30.09 848 25.04 -4 24.8 66 -9.4 15
11:20 1019 30.09 848 25.04 -3.7 25.3 65 -9.5 14.9
11:25 1019 30.09 849 25.07 -4 24.7 64 -9.9 14.1
11:30 1019 30.09 849 25.07 -3.8 25.1 62 -10.1 13.9
11:35 1019 30.09 849 25.07 -3.5 25.7 59 -10.4 13.3
11:40 1019 30.09 849 25.07 -3.5 25.7 57 -10.9 12.3
11:45 1019 30.09 849 25.07 -3.4 25.8 55 -11.2 11.8
11:50 1019 30.09 849 25.07 -3.2 26.2 53 -11.5 11.3
11:55 1019 30.09 849 25.07 -3.4 26 50 -12.4 9.8
12:00 1019 30.09 849 25.07 -3.5 25.7 49 -12.7 9.2
12:05 1019 30.09 849 25.07 -3.5 25.7 48 -13 8.6
12:10 1019 30.09 849 25.07 -3.5 25.7 49 -12.8 8.9
12:15 1019 30.09 849 25.07 -3.4 25.8 48 -13.1 8.5
12:20 1019 30.09 849 25.07 -3.4 25.9 47 -13 8.6
12:25 1019 30.09 849 25.07 -3 26.6 47 -12.7 9.1
12:30 1019 30.09 849 25.07 -2.8 26.9 46 -12.8 8.9
12:35 1019 30.09 849 25.07 -2.2 28 45 -12.6 9.3
12:40 1019 30.09 849 25.07 -2.8 27 51 -11.6 11.1
12:45 1019 30.09 849 25.07 -3 26.5 48 -12.5 9.6
12:50 1019 30.09 849 25.07 -2.7 27.2 41 -14.1 6.7
12:55 1019 30.09 848 25.04 -2.4 27.7 43 -13.3 8.1
13:00 1019 30.09 848 25.04 -2.3 27.8 42 -13.5 7.6
13:05 1019 30.09 848 25.04 -2.6 27.3 45 -12.9 8.7
13:10 1019 30.09 848 25.04 -2.5 27.5 43 -13.4 8
13:15 1019 30.09 848 25.04 -2.5 27.4 46 -12.6 9.3
13:20 1019 30.09 848 25.04 -2.9 26.8 49 -12.1 10.2
13:25 1019 30.09 848 25.04 -2.8 27 48 -12.2 10
13:30 1019 30.09 848 25.04 -2.6 27.4 48 -12.3 9.9
13:35 1019 30.09 848 25.04 -2.9 26.8 50 -12 10.4
13:40 1019 30.09 848 25.04 -3.1 26.5 51 -11.9 10.6
13:45 1019 30.09 848 25.04 -3.2 26.3 51 -12 10.4
13:50 1019 30.09 848 25.04 -3.1 26.5 50 -12 10.4
13:55 1019 30.09 848 25.04 -2.6 27.2 50 -11.7 11
14:00 1019 30.09 848 25.04 -2.7 27.2 53 -10.9 12.3
14:05 1019 30.09 848 25.04 -3 26.5 58 -10.2 13.6
14:10 1019 30.09 848 25.04 -3.4 25.9 58 -10.6 12.9
14:15 1019 30.09 848 25.04 -3.7 25.3 61 -10.3 13.5
14:20 1019 30.09 848 25.04 -4.1 24.6 63 -10.2 13.6
14:25 1019 30.09 848 25.04 -4.3 24.2 61 -10.7 12.8
14:30 1019 30.09 848 25.04 -4.2 24.4 61 -10.8 12.6
14:35 1019 30.09 848 25.04 -4.1 24.6 62 -10.3 13.4
14:40 1019 30.09 848 25.04 -4.1 24.6 61 -10.6 12.9
14:45 1019 30.09 848 25.04 -4 24.7 62 -10.3 13.4
14:50 1019 30.09 848 25.04 -4.1 24.6 64 -9.9 14.2
14:55 1019 30.09 848 25.04 -4.3 24.2 65 -10 13.9
15:00 1019 30.09 848 25.04 -4.1 24.6 65 -9.8 14.3
15:05 1019 30.09 848 25.04 -4 24.7 65 -9.7 14.5
15:10 1019 30.09 848 25.04 -4 24.9 63 -10 14
15:15 1019 30.09 848 25.04 -4 24.8 64 -9.9 14.2
15:20 1019 30.09 848 25.04 -4 24.9 66 -9.4 15
15:25 1019 30.09 848 25.04 -4.1 24.7 66 -9.5 15
15:30 1019 30.09 848 25.04 -4.1 24.6 68 -9.2 15.5
15:35 1019 30.09 848 25.04 -4.3 24.3 68 -9.3 15.3
15:40 1019 30.09 848 25.04 -4.1 24.6 67 -9.4 15
15:45 1019 30.09 848 25.04 -4.2 24.5 66 -9.6 14.7
15:50 1019 30.09 848 25.04 -4.2 24.4 66 -9.7 14.6
15:55 1019 30.09 848 25.04 -4.2 24.5 66 -9.6 14.7
16:00 1019 30.09 848 25.04 -4.2 24.5 67 -9.4 15
16:05 1019 30.09 848 25.04 -4.2 24.4 69 -9.2 15.5
16:10 1019 30.09 848 25.04 -4.1 24.7 65 -9.8 14.4
16:15 1019 30.09 848 25.04 -4.2 24.4 68 -9.3 15.2
16:20 1019 30.09 848 25.04 -4.3 24.3 66 -9.7 14.5
16:25 1019 30.09 848 25.04 -4.3 24.3 66 -9.7 14.5
16:30 1019 30.09 848 25.04 -4.2 24.4 65 -9.8 14.3
16:35 1019 30.09 848 25.04 -4.2 24.4 66 -9.5 14.8
16:40 1019 30.09 848 25.04 -4 24.8 65 -9.6 14.8
16:45 1019 30.09 848 25.04 -4.4 24.1 70 -9.1 15.6
16:50 1019 30.09 848 25.04 -4.5 23.9 68 -9.5 14.9
16:55 1019 30.09 848 25.04 -4.4 24.2 68 -9.4 15.1
17:00 1019 30.09 848 25.04 -4.3 24.3 66 -9.8 14.4
17:05 1019 30.09 849 25.07 -3.8 25.2 64 -9.7 14.6
17:10 1019 30.09 848 25.04 -3.6 25.5 64 -9.4 15
17:15 1019 30.09 849 25.07 -3.3 26 62 -9.5 14.9
17:20 1019 30.09 848 25.04 -3.7 25.4 65 -9.3 15.3
17:25 1019 30.09 848 25.04 -3.9 24.9 66 -9.4 15.1
17:30 1019 30.09 849 25.07 -4.1 24.6 66 -9.6 14.8
17:35 1019 30.09 849 25.07 -4.3 24.2 66 -9.8 14.3
17:40 1019 30.09 849 25.07 -4.2 24.5 65 -9.8 14.3
17:45 1019 30.09 849 25.07 -4.3 24.2 66 -9.8 14.3
17:50 1019 30.09 849 25.07 -4.7 23.5 67 -9.9 14.2
17:55 1019 30.09 849 25.07 -4.7 23.6 67 -9.9 14.1
18:00 1019 30.09 848 25.04 -4.7 23.6 64 -10.5 13.1
18:05 1019 30.09 848 25.04 -4.7 23.5 65 -10.4 13.4
18:10 1019 30.09 848 25.04 -4.7 23.6 63 -10.7 12.7
18:15 1019 30.09 848 25.04 -4.7 23.5 63 -10.7 12.7
18:20 1019 30.09 848 25.04 -4.8 23.3 64 -10.7 12.8
18:25 1019 30.09 848 25.04 -5.3 22.5 65 -10.8 12.5
18:30 1019 30.09 848 25.04 -5.5 22 65 -11.1 12
18:35 1019 30.09 848 25.04 -6.1 21 67 -11.3 11.7
18:40 1019 30.09 848 25.04 -6.5 20.3 67 -11.7 11
18:45 1019 30.09 848 25.04 -6.4 20.5 66 -11.7 10.9
18:50 1019 30.09 848 25.04 -6.4 20.5 66 -11.8 10.8
18:55 1019 30.09 848 25.04 -6.4 20.5 66 -11.8 10.8
19:00 1019 30.09 848 25.04 -6.5 20.3 66 -11.9 10.5
19:05 1019 30.09 848 25.04 -6.9 19.7 66 -12.1 10.2
19:10 1019 30.09 848 25.04 -7.1 19.1 67 -12.3 9.8
19:15 1019 30.09 848 25.04 -7.5 18.5 67 -12.6 9.3
19:20 1019 30.09 849 25.07 -7.7 18.2 67 -12.8 8.9
19:25 1019 30.09 848 25.04 -8 17.7 68 -12.9 8.7
19:30 1019 30.09 848 25.04 -8.1 17.5 66 -13.3 8
19:35 1019 30.09 848 25.04 -8.1 17.4 66 -13.4 7.9
19:40 1019 30.09 848 25.04 -7.9 17.8 67 -13 8.6
19:45 1019 30.09 848 25.04 -8 17.6 66 -13.2 8.3
19:50 1019 30.09 848 25.04 -7.6 18.3 65 -13.2 8.3
19:55 1019 30.09 848 25.04 -7.6 18.4 65 -13.1 8.5
20:00 1019 30.09 848 25.04 -7.9 17.8 66 -13.2 8.2
20:05 1019 30.09 848 25.04 -7.9 17.8 64 -13.5 7.6
20:10 1019 30.09 848 25.04 -7.8 18.1 65 -13.2 8.3
20:15 1019 30.09 848 25.04 -8.3 17.1 68 -13.2 8.2
20:20 1019 30.09 848 25.04 -8.6 16.4 69 -13.3 8
20:25 1019 30.09 848 25.04 -8.6 16.6 68 -13.4 7.9
20:30 1019 30.09 848 25.04 -8.4 16.8 69 -13.2 8.3
20:35 1019 30.09 848 25.04 -8.2 17.2 69 -12.9 8.7
20:40 1019 30.09 848 25.04 -8.1 17.4 68 -13.1 8.4
20:45 1019 30.09 848 25.04 -8.5 16.8 69 -13.2 8.3
20:50 1019 30.09 848 25.04 -8.7 16.3 70 -13.3 8.1
20:55 1019 30.09 848 25.04 -9.1 15.6 71 -13.4 7.9
21:00 1019 30.09 849 25.07 -9.2 15.5 71 -13.5 7.6
21:05 1019 30.09 849 25.07 -9.1 15.6 70 -13.6 7.5
21:10 1019 30.09 848 25.04 -9.2 15.4 71 -13.6 7.5
21:15 1019 30.09 849 25.07 -9.5 15 72 -13.6 7.6
21:20 1019 30.09 849 25.07 -9.8 14.3 73 -13.7 7.3
21:25 1019 30.09 849 25.07 -9.8 14.3 72 -13.9 7
21:30 1019 30.09 849 25.07 -9.8 14.4 72 -13.8 7.1
21:35 1019 30.09 849 25.07 -9.8 14.4 72 -13.9 6.9
21:40 1019 30.09 849 25.07 -9.7 14.5 72 -13.9 6.9
21:45 1019 30.09 849 25.07 -9.9 14.2 72 -14 6.8
21:50 1019 30.09 849 25.07 -9.9 14.1 72 -14.2 6.5
21:55 1019 30.09 849 25.07 -10 14.1 72 -14.1 6.6
22:00 1019 30.09 849 25.07 -10 14 72 -14.2 6.5
22:05 1020 30.12 849 25.07 -10 14 71 -14.3 6.3
22:10 1020 30.12 849 25.07 -10 14 71 -14.3 6.3
22:15 1020 30.12 849 25.07 -9.8 14.4 70 -14.3 6.3
22:20 1020 30.12 849 25.07 -9.5 14.8 69 -14.2 6.4
22:25 1020 30.12 849 25.07 -9.8 14.4 71 -14.2 6.4
22:30 1020 30.12 849 25.07 -10.1 13.9 71 -14.3 6.2
22:35 1020 30.12 849 25.07 -10 13.9 71 -14.4 6.1
22:40 1020 30.12 849 25.07 -10.5 13.1 75 -14.1 6.7
22:45 1020 30.12 849 25.07 -10.8 12.7 75 -14.3 6.2
22:50 1020 30.12 849 25.07 -10.3 13.4 74 -14.1 6.7
22:55 1020 30.12 849 25.07 -10.5 13.1 74 -14.3 6.3
23:00 1020 30.12 849 25.07 -10.7 12.8 76 -14.2 6.5
23:05 1020 30.12 849 25.07 -10.5 13.1 76 -14 6.8
23:10 1020 30.12 849 25.07 -10.4 13.3 72 -14.5 5.9
23:15 1020 30.12 849 25.07 -10.4 13.2 72 -14.5 5.9
23:20 1020 30.12 849 25.07 -10.3 13.4 69 -14.9 5.1
23:25 1020 30.12 849 25.07 -10.4 13.3 70 -14.8 5.3
23:30 1020 30.12 849 25.07 -10.7 12.7 72 -14.9 5.2
23:35 1020 30.12 849 25.07 -11.2 11.8 74 -15 5
23:40 1020 30.12 849 25.07 -11.4 11.4 74 -15.1 4.7
23:45 1019 30.09 849 25.07 -11.8 10.8 76 -15.1 4.7
23:50 1019 30.09 849 25.07 -11.6 11.2 75 -15.2 4.7
23:55 1019 30.09 849 25.07 -11.7 11 75 -15.3 4.4
24:00 1019 30.09 849 25.07 -11.8 10.7 75 -15.4 4.4